createdAt,value
2022-10-02T00:01:34.594Z,1.00
2022-10-02T00:04:04.495Z,0.93
2022-10-02T00:06:36.416Z,1.13
2022-10-02T00:09:04.625Z,1.20
2022-10-02T00:11:38.117Z,1.00
2022-10-02T00:14:06.822Z,1.03
2022-10-02T00:16:37.293Z,1.13
2022-10-02T00:19:06.431Z,1.30
2022-10-02T00:21:38.168Z,1.10
2022-10-02T00:24:06.691Z,1.10
2022-10-02T00:26:37.400Z,1.47
2022-10-02T00:29:10.332Z,1.63
2022-10-02T00:31:44.848Z,1.63
2022-10-02T00:34:21.939Z,1.30
2022-10-02T00:36:53.763Z,1.30
2022-10-02T00:39:27.943Z,1.60
2022-10-02T00:42:10.004Z,1.30
2022-10-02T00:44:55.689Z,2.03
2022-10-02T00:47:29.431Z,1.50
2022-10-02T00:50:04.311Z,1.60
2022-10-02T00:52:51.980Z,1.50
2022-10-02T00:55:29.186Z,1.40
2022-10-02T00:58:04.169Z,1.27
2022-10-02T01:00:31.757Z,1.50
2022-10-02T01:03:14.137Z,1.40
2022-10-02T01:05:43.214Z,1.60
2022-10-02T01:08:10.748Z,1.50
2022-10-02T01:10:39.137Z,1.60
2022-10-02T01:13:06.790Z,1.70
2022-10-02T01:15:35.742Z,1.73
2022-10-02T01:18:03.334Z,1.50
2022-10-02T01:20:34.478Z,1.30
2022-10-02T01:23:05.718Z,1.70
2022-10-02T01:25:34.772Z,1.93
2022-10-02T01:28:02.590Z,1.60
2022-10-02T01:30:30.729Z,1.57
2022-10-02T01:32:59.147Z,1.67
2022-10-02T01:35:28.851Z,1.60
2022-10-02T01:37:56.494Z,1.30
2022-10-02T01:40:25.001Z,1.77
2022-10-02T01:42:54.772Z,1.47
2022-10-02T01:45:28.598Z,1.40
2022-10-02T01:48:02.123Z,1.30
2022-10-02T01:50:33.736Z,1.40
2022-10-02T01:53:03.787Z,1.33
2022-10-02T01:55:35.957Z,1.37
2022-10-02T01:58:12.765Z,1.53
2022-10-02T02:00:47.625Z,1.87
2022-10-02T02:03:19.846Z,1.33
2022-10-02T02:05:49.198Z,1.37
2022-10-02T02:08:21.187Z,1.30
2022-10-02T02:10:53.635Z,1.20
2022-10-02T02:13:26.509Z,1.37
2022-10-02T02:15:58.137Z,1.60
2022-10-02T02:18:28.702Z,1.43
2022-10-02T02:21:01.852Z,1.70
2022-10-02T02:23:30.868Z,1.90
2022-10-02T02:26:00.602Z,1.27
2022-10-02T02:28:31.041Z,1.63
2022-10-02T02:30:59.199Z,1.40
2022-10-02T02:33:29.043Z,1.40
2022-10-02T02:35:57.691Z,1.50
2022-10-02T02:38:27.847Z,2.20
2022-10-02T02:40:55.987Z,1.90
2022-10-02T02:43:25.396Z,1.67
2022-10-02T02:45:56.301Z,1.50
2022-10-02T02:48:26.255Z,1.53
2022-10-02T02:50:56.296Z,1.70
2022-10-02T02:53:26.898Z,1.73
2022-10-02T02:55:56.044Z,1.43
2022-10-02T02:58:27.855Z,1.40
2022-10-02T03:00:56.944Z,1.90
2022-10-02T03:03:24.938Z,1.53
2022-10-02T03:05:53.890Z,1.60
2022-10-02T03:08:24.493Z,1.70
2022-10-02T03:10:58.815Z,1.73
2022-10-02T03:13:32.760Z,1.30
2022-10-02T03:16:11.704Z,1.60
2022-10-02T03:18:45.324Z,1.70
2022-10-02T03:21:15.618Z,1.67
2022-10-02T03:23:51.496Z,1.50
2022-10-02T03:26:20.223Z,1.77
2022-10-02T03:28:56.036Z,1.60
2022-10-02T03:31:26.512Z,1.40
2022-10-02T03:33:54.579Z,1.50
2022-10-02T03:36:24.476Z,1.60
2022-10-02T03:39:12.544Z,1.47
2022-10-02T03:41:40.784Z,1.73
2022-10-02T03:44:08.203Z,1.23
2022-10-02T03:46:37.294Z,1.57
2022-10-02T03:49:04.823Z,1.30
2022-10-02T03:51:32.255Z,1.63
2022-10-02T03:53:59.743Z,1.23
2022-10-02T03:56:35.399Z,1.00
2022-10-02T03:59:04.523Z,1.67
2022-10-02T04:01:33.636Z,1.30
2022-10-02T04:04:06.701Z,1.33
2022-10-02T04:06:39.208Z,1.50
2022-10-02T04:09:10.170Z,1.10
2022-10-02T04:11:39.673Z,0.97
2022-10-02T04:14:10.709Z,1.10
2022-10-02T04:16:41.256Z,1.27
2022-10-02T04:19:13.123Z,0.80
2022-10-02T04:21:43.130Z,1.33
2022-10-02T04:24:13.462Z,1.30
2022-10-02T04:26:42.864Z,1.57
2022-10-02T04:29:14.446Z,0.93
2022-10-02T04:31:41.920Z,0.90
2022-10-02T04:34:14.014Z,1.00
2022-10-02T04:36:46.629Z,0.97
2022-10-02T04:39:28.788Z,1.00
2022-10-02T04:42:08.807Z,0.97
2022-10-02T04:44:42.826Z,1.10
2022-10-02T04:47:21.076Z,1.13
2022-10-02T04:50:02.148Z,0.97
2022-10-02T04:52:37.858Z,0.97
2022-10-02T04:55:18.842Z,0.93
2022-10-02T04:58:16.570Z,1.20
2022-10-02T05:00:46.708Z,1.10
2022-10-02T05:03:21.057Z,1.03
2022-10-02T05:06:09.120Z,0.97
2022-10-02T05:08:43.330Z,1.00
2022-10-02T05:11:18.428Z,1.07
2022-10-02T05:14:02.660Z,1.17
2022-10-02T05:16:39.948Z,1.07
2022-10-02T05:19:15.193Z,1.13
2022-10-02T05:21:53.189Z,1.00
2022-10-02T05:24:34.887Z,1.00
2022-10-02T05:27:07.867Z,1.00
2022-10-02T05:29:43.584Z,1.13
2022-10-02T05:32:20.083Z,1.10
2022-10-02T05:34:55.086Z,0.93
2022-10-02T05:37:31.821Z,1.20
2022-10-02T05:40:04.416Z,1.40
2022-10-02T05:42:33.924Z,1.17
2022-10-02T05:45:02.811Z,1.27
2022-10-02T05:47:31.331Z,1.10
2022-10-02T05:50:00.955Z,1.13
2022-10-02T05:52:33.744Z,1.10
2022-10-02T05:55:04.818Z,1.20
2022-10-02T05:57:33.961Z,1.10
2022-10-02T06:00:05.162Z,1.30
2022-10-02T06:02:39.368Z,1.10
2022-10-02T06:05:12.721Z,1.40
2022-10-02T06:07:42.989Z,1.30
2022-10-02T06:10:12.901Z,1.53
2022-10-02T06:12:42.821Z,1.27
2022-10-02T06:15:16.805Z,1.30
2022-10-02T06:17:47.230Z,1.50
2022-10-02T06:20:17.492Z,1.10
2022-10-02T06:22:48.374Z,1.33
2022-10-02T06:25:20.641Z,1.70
2022-10-02T06:30:31.219Z,1.30
2022-10-02T06:33:02.811Z,1.43
2022-10-02T06:35:43.034Z,1.43
2022-10-02T06:38:16.304Z,1.60
2022-10-02T06:40:46.644Z,1.33
2022-10-02T06:43:21.010Z,1.60
2022-10-02T06:45:58.400Z,1.40
2022-10-02T06:48:26.811Z,1.50
2022-10-02T06:50:57.939Z,1.27
2022-10-02T06:53:31.615Z,1.30
2022-10-02T06:56:03.581Z,1.40
2022-10-02T06:58:46.344Z,1.40
2022-10-02T07:01:19.973Z,1.40
2022-10-02T07:04:04.115Z,1.53
2022-10-02T07:06:36.873Z,1.40
2022-10-02T07:09:14.054Z,1.27
2022-10-02T07:11:44.725Z,1.50
2022-10-02T07:14:21.616Z,1.57
2022-10-02T07:16:57.628Z,1.07
2022-10-02T07:19:32.764Z,1.50
2022-10-02T07:22:20.347Z,1.30
2022-10-02T07:24:59.675Z,1.50
2022-10-02T07:27:32.756Z,1.97
2022-10-02T07:30:03.041Z,2.33
2022-10-02T07:32:38.725Z,2.53
2022-10-02T07:35:15.002Z,1.20
2022-10-02T07:37:46.709Z,1.10
2022-10-02T07:40:20.997Z,1.47
2022-10-02T07:42:55.978Z,1.00
2022-10-02T07:45:33.018Z,1.27
2022-10-02T07:48:18.523Z,1.20
2022-10-02T07:50:54.099Z,1.27
2022-10-02T07:53:25.625Z,1.20
2022-10-02T07:55:54.108Z,1.23
2022-10-02T07:58:28.525Z,0.90
2022-10-02T08:01:00.761Z,0.90
2022-10-02T08:03:31.792Z,1.00
2022-10-02T08:06:00.929Z,1.13
2022-10-02T08:08:29.930Z,1.10
2022-10-02T08:11:02.710Z,0.73
2022-10-02T08:13:32.856Z,0.90
2022-10-02T08:16:00.535Z,1.10
2022-10-02T08:18:34.534Z,1.13
2022-10-02T08:21:04.622Z,0.90
2022-10-02T08:23:34.476Z,1.03
2022-10-02T08:26:04.655Z,1.10
2022-10-02T08:28:37.131Z,0.83
2022-10-02T08:31:09.323Z,1.00
2022-10-02T08:33:36.859Z,1.40
2022-10-02T08:36:16.926Z,1.17
2022-10-02T08:38:48.650Z,1.00
2022-10-02T08:41:37.471Z,1.00
2022-10-02T08:44:17.152Z,1.10
2022-10-02T08:46:58.201Z,1.40
2022-10-02T08:49:35.195Z,1.27
2022-10-02T08:52:21.000Z,1.20
2022-10-02T08:55:07.253Z,1.10
2022-10-02T08:57:46.161Z,1.07
2022-10-02T09:00:20.475Z,1.20
2022-10-02T09:03:02.081Z,1.20
2022-10-02T09:05:56.677Z,1.10
2022-10-02T09:08:45.008Z,1.43
2022-10-02T09:11:30.168Z,1.37
2022-10-02T09:14:11.041Z,1.40
2022-10-02T09:16:50.743Z,1.50
2022-10-02T09:19:27.162Z,1.10
2022-10-02T09:21:56.324Z,1.37
2022-10-02T09:24:46.705Z,1.00
2022-10-02T09:27:41.263Z,1.40
2022-10-02T09:30:29.832Z,1.20
2022-10-02T09:33:17.037Z,1.37
2022-10-02T09:35:55.779Z,1.00
2022-10-02T09:38:39.256Z,1.00
2022-10-02T09:41:34.864Z,1.60
2022-10-02T09:44:22.644Z,1.40
2022-10-02T09:47:01.647Z,1.13
2022-10-02T09:49:44.167Z,1.37
2022-10-02T09:52:29.547Z,1.13
2022-10-02T09:55:23.211Z,1.43
2022-10-02T09:58:07.661Z,1.10
2022-10-02T10:00:54.924Z,1.60
2022-10-02T10:03:30.222Z,1.20
2022-10-02T10:06:10.793Z,1.10
2022-10-02T10:08:50.654Z,1.60
2022-10-02T10:11:39.831Z,1.33
2022-10-02T10:14:24.484Z,1.33
2022-10-02T10:17:22.209Z,1.30
2022-10-02T10:19:59.517Z,1.20
2022-10-02T10:22:42.972Z,1.53
2022-10-02T10:25:31.709Z,1.63
2022-10-02T10:28:13.630Z,2.20
2022-10-02T10:31:02.168Z,2.13
2022-10-02T10:33:44.914Z,2.80
2022-10-02T10:36:46.608Z,7.47
2022-10-02T10:39:32.021Z,4.63
2022-10-02T10:42:14.670Z,4.47
2022-10-02T10:45:03.055Z,2.27
2022-10-02T10:47:54.218Z,2.13
2022-10-02T10:50:38.439Z,2.17
2022-10-02T10:53:14.258Z,2.57
2022-10-02T10:55:50.875Z,1.80
2022-10-02T10:58:21.840Z,2.77
2022-10-02T11:00:58.227Z,2.00
2022-10-02T11:03:32.324Z,2.17
2022-10-02T11:06:23.701Z,1.90
2022-10-02T11:09:05.993Z,2.57
2022-10-02T11:11:39.194Z,1.93
2022-10-02T11:14:22.403Z,1.97
2022-10-02T11:17:08.505Z,1.83
2022-10-02T11:19:47.656Z,1.50
2022-10-02T11:22:24.868Z,1.50
2022-10-02T11:25:01.992Z,2.30
2022-10-02T11:27:34.429Z,2.00
2022-10-02T11:30:17.840Z,1.80
2022-10-02T11:32:59.185Z,2.17
2022-10-02T11:35:48.932Z,2.53
2022-10-02T11:38:26.472Z,2.23
2022-10-02T11:41:00.483Z,2.93
2022-10-02T11:43:38.489Z,2.63
2022-10-02T11:46:21.564Z,2.40
2022-10-02T11:49:20.218Z,2.00
2022-10-02T11:51:58.752Z,1.87
2022-10-02T11:54:29.935Z,2.20
2022-10-02T11:57:07.410Z,2.40
2022-10-02T11:59:41.437Z,2.03
2022-10-02T12:02:15.746Z,1.90
2022-10-02T12:04:49.547Z,2.40
2022-10-02T12:07:33.000Z,2.10
2022-10-02T12:10:07.797Z,1.90
2022-10-02T12:12:40.924Z,2.30
2022-10-02T12:15:14.979Z,2.70
2022-10-02T12:17:53.137Z,1.80
2022-10-02T12:20:42.707Z,2.53
2022-10-02T12:23:35.903Z,2.77
2022-10-02T12:26:25.674Z,2.70
2022-10-02T12:28:56.944Z,2.80
2022-10-02T12:31:29.636Z,2.43
2022-10-02T12:34:01.378Z,2.60
2022-10-02T12:36:56.567Z,2.20
2022-10-02T12:39:36.152Z,1.70
2022-10-02T12:42:07.798Z,2.47
2022-10-02T12:44:58.192Z,3.00
2022-10-02T12:47:49.692Z,1.60
2022-10-02T12:50:23.406Z,1.57
2022-10-02T12:53:09.052Z,1.90
2022-10-02T12:55:49.101Z,1.67
2022-10-02T12:58:20.496Z,2.00
2022-10-02T13:01:06.478Z,1.57
2022-10-02T13:03:50.278Z,1.30
2022-10-02T13:06:32.796Z,1.27
2022-10-02T13:09:05.405Z,1.20
2022-10-02T13:11:42.688Z,1.10
2022-10-02T13:14:18.070Z,0.90
2022-10-02T13:17:10.085Z,1.00
2022-10-02T13:19:42.570Z,0.87
2022-10-02T13:22:13.816Z,0.90
2022-10-02T13:24:48.225Z,0.70
2022-10-02T13:27:23.414Z,0.70
2022-10-02T13:29:57.888Z,0.80
2022-10-02T13:32:33.791Z,0.60
2022-10-02T13:35:16.015Z,0.77
2022-10-02T13:37:48.281Z,1.00
2022-10-02T13:40:21.711Z,0.97
2022-10-02T13:43:06.061Z,0.83
2022-10-02T13:45:36.236Z,0.80
2022-10-02T13:48:07.091Z,0.80
2022-10-02T13:50:42.171Z,1.13
2022-10-02T13:53:19.559Z,0.93
2022-10-02T13:55:49.125Z,0.90
2022-10-02T13:58:35.279Z,0.70
2022-10-02T14:01:15.130Z,0.87
2022-10-02T14:03:55.287Z,0.70
2022-10-02T14:06:25.592Z,0.70
2022-10-02T14:08:59.618Z,0.70
2022-10-02T14:11:31.494Z,0.80
2022-10-02T14:14:06.984Z,0.50
2022-10-02T14:16:44.486Z,0.47
2022-10-02T14:19:24.598Z,0.80
2022-10-02T14:21:56.708Z,0.50
2022-10-02T14:24:46.829Z,0.40
2022-10-02T14:27:19.323Z,0.43
2022-10-02T14:29:49.436Z,0.50
2022-10-02T14:32:36.183Z,0.40
2022-10-02T14:35:24.006Z,0.50
2022-10-02T14:37:58.165Z,0.40
2022-10-02T14:40:31.127Z,0.50
2022-10-02T14:43:09.710Z,0.40
2022-10-02T14:45:57.101Z,0.60
2022-10-02T14:48:39.151Z,0.70
2022-10-02T14:51:11.917Z,0.40
2022-10-02T14:53:49.787Z,0.40
2022-10-02T14:56:35.184Z,0.50
2022-10-02T14:59:19.189Z,0.60
2022-10-02T15:01:50.996Z,0.50
2022-10-02T15:04:29.245Z,0.40
2022-10-02T15:07:05.303Z,0.50
2022-10-02T15:09:36.531Z,0.40
2022-10-02T15:12:10.843Z,0.33
2022-10-02T15:14:42.040Z,0.43
2022-10-02T15:17:29.158Z,0.43
2022-10-02T15:20:04.069Z,0.43
2022-10-02T15:22:36.516Z,0.30
2022-10-02T15:25:17.783Z,0.30
2022-10-02T15:27:47.113Z,0.40
2022-10-02T15:30:17.653Z,0.40
2022-10-02T15:32:58.464Z,0.33
2022-10-02T15:35:32.863Z,0.40
2022-10-02T15:38:11.035Z,0.40
2022-10-02T15:40:44.994Z,0.40
2022-10-02T15:43:29.877Z,0.33
2022-10-02T15:46:04.903Z,0.50
2022-10-02T15:48:43.943Z,0.43
2022-10-02T15:51:18.825Z,0.47
2022-10-02T15:53:52.469Z,2.17
2022-10-02T15:56:28.369Z,0.87
2022-10-02T15:59:07.596Z,0.90
2022-10-02T16:01:44.306Z,1.00
2022-10-02T16:04:18.399Z,0.50
2022-10-02T16:06:54.231Z,0.40
2022-10-02T16:09:28.557Z,0.40
2022-10-02T16:12:04.320Z,0.50
2022-10-02T16:14:43.524Z,0.57
2022-10-02T16:17:17.226Z,0.50
2022-10-02T16:19:54.119Z,0.60
2022-10-02T16:22:30.578Z,0.50
2022-10-02T16:25:07.292Z,0.50
2022-10-02T16:27:51.653Z,0.60
2022-10-02T16:30:21.112Z,0.53
2022-10-02T16:33:21.724Z,0.60
2022-10-02T16:36:17.522Z,0.40
2022-10-02T16:38:49.457Z,0.60
2022-10-02T16:41:21.924Z,0.50
2022-10-02T16:43:59.023Z,0.70
2022-10-02T16:46:31.063Z,0.53
2022-10-02T16:49:02.524Z,0.80
2022-10-02T16:51:37.031Z,0.50
2022-10-02T16:54:13.722Z,0.60
2022-10-02T16:56:44.913Z,0.50
2022-10-02T16:59:14.811Z,0.60
2022-10-02T17:02:05.519Z,0.57
2022-10-02T17:04:38.268Z,0.77
2022-10-02T17:07:17.801Z,0.70
2022-10-02T17:09:49.052Z,0.70
2022-10-02T17:12:21.131Z,0.70
2022-10-02T17:14:52.931Z,0.73
2022-10-02T17:17:23.179Z,0.70
2022-10-02T17:19:53.525Z,0.70
2022-10-02T17:22:28.668Z,0.80
2022-10-02T17:25:04.365Z,0.80
2022-10-02T17:27:39.927Z,0.70
2022-10-02T17:30:16.416Z,0.90
2022-10-02T17:32:56.710Z,1.30
2022-10-02T17:35:37.801Z,1.00
2022-10-02T17:38:14.795Z,0.70
2022-10-02T17:40:51.299Z,0.90
2022-10-02T17:43:24.656Z,5.00
2022-10-02T17:45:58.714Z,1.00
2022-10-02T17:48:34.635Z,1.97
2022-10-02T17:51:30.925Z,1.50
2022-10-02T17:54:23.661Z,0.70
2022-10-02T17:57:04.992Z,0.80
2022-10-02T17:59:40.107Z,0.73
2022-10-02T18:02:14.415Z,0.80
2022-10-02T18:04:49.742Z,0.80
2022-10-02T18:07:24.601Z,0.80
2022-10-02T18:09:57.799Z,0.73
2022-10-02T18:12:36.938Z,0.70
2022-10-02T18:15:25.554Z,0.63
2022-10-02T18:18:01.449Z,0.80
2022-10-02T18:20:34.623Z,0.80
2022-10-02T18:23:17.064Z,0.90
2022-10-02T18:25:51.839Z,1.10
2022-10-02T18:28:36.871Z,4.10
2022-10-02T18:31:13.081Z,1.73
2022-10-02T18:33:50.166Z,1.20
2022-10-02T18:36:29.283Z,1.40
2022-10-02T18:39:00.310Z,0.93
2022-10-02T18:41:45.794Z,1.10
2022-10-02T18:44:23.030Z,1.27
2022-10-02T18:46:56.275Z,2.97
2022-10-02T18:49:31.484Z,2.07
2022-10-02T18:52:16.636Z,1.80
2022-10-02T18:54:50.432Z,0.87
2022-10-02T18:57:31.228Z,1.07
2022-10-02T19:00:04.562Z,1.40
2022-10-02T19:02:38.733Z,1.40
2022-10-02T19:05:22.310Z,1.23
2022-10-02T19:07:52.478Z,1.30
2022-10-02T19:10:24.137Z,1.10
2022-10-02T19:12:53.266Z,1.10
2022-10-02T19:15:23.241Z,1.13
2022-10-02T19:17:58.280Z,1.13
2022-10-02T19:20:37.086Z,1.20
2022-10-02T19:23:05.628Z,1.43
2022-10-02T19:25:34.287Z,1.50
2022-10-02T19:28:02.796Z,1.80
2022-10-02T19:30:33.025Z,1.80
2022-10-02T19:33:03.607Z,2.10
2022-10-02T19:35:32.500Z,2.60
2022-10-02T19:38:02.499Z,3.10
2022-10-02T19:40:34.379Z,2.27
2022-10-02T19:43:07.116Z,1.93
2022-10-02T19:45:38.675Z,2.07
2022-10-02T19:48:07.037Z,2.20
2022-10-02T19:50:40.413Z,1.73
2022-10-02T19:53:08.907Z,2.03
2022-10-02T19:55:38.653Z,1.90
2022-10-02T19:58:14.148Z,1.90
2022-10-02T20:00:43.200Z,2.23
2022-10-02T20:03:15.937Z,2.17
2022-10-02T20:05:44.201Z,2.63
2022-10-02T20:08:16.524Z,2.93
2022-10-02T20:10:48.605Z,2.20
2022-10-02T20:13:18.282Z,3.43
2022-10-02T20:16:07.614Z,2.90
2022-10-02T20:18:35.541Z,3.47
2022-10-02T20:21:06.765Z,2.53
2022-10-02T20:23:35.795Z,2.40
2022-10-02T20:26:08.908Z,2.83
2022-10-02T20:28:41.437Z,2.50
2022-10-02T20:31:15.251Z,2.87
2022-10-02T20:33:46.579Z,2.97
2022-10-02T20:36:17.045Z,3.83
2022-10-02T20:38:46.822Z,3.53
2022-10-02T20:41:18.480Z,3.43
2022-10-02T20:43:49.275Z,3.43
2022-10-02T20:46:35.785Z,4.20
2022-10-02T20:49:19.294Z,3.90
2022-10-02T20:51:56.674Z,3.90
2022-10-02T20:54:28.780Z,4.33
2022-10-02T20:57:15.643Z,4.53
2022-10-02T20:59:58.073Z,4.77
2022-10-02T21:02:33.175Z,5.30
2022-10-02T21:05:25.405Z,4.37
2022-10-02T21:08:03.990Z,4.90
2022-10-02T21:10:50.955Z,5.20
2022-10-02T21:13:33.474Z,5.13
2022-10-02T21:16:16.173Z,5.77
2022-10-02T21:19:13.997Z,5.03
2022-10-02T21:21:55.795Z,5.60
2022-10-02T21:24:44.037Z,5.83
2022-10-02T21:27:28.083Z,6.37
2022-10-02T21:30:04.382Z,6.40
2022-10-02T21:32:40.616Z,6.40
2022-10-02T21:35:10.169Z,6.20
2022-10-02T21:37:46.679Z,6.83
2022-10-02T21:40:30.539Z,7.00
2022-10-02T21:43:13.583Z,8.43
2022-10-02T21:45:58.434Z,7.57
2022-10-02T21:48:44.727Z,7.80
2022-10-02T21:51:30.103Z,7.40
2022-10-02T21:54:16.698Z,8.27
2022-10-02T21:56:57.275Z,8.70
2022-10-02T21:59:39.604Z,8.47
2022-10-02T22:02:31.052Z,8.77
2022-10-02T22:05:16.239Z,9.70
2022-10-02T22:07:47.329Z,9.30
2022-10-02T22:10:17.644Z,8.93
2022-10-02T22:12:51.281Z,9.13
2022-10-02T22:15:21.903Z,8.90
2022-10-02T22:17:56.610Z,9.60
2022-10-02T22:20:44.486Z,10.33
2022-10-02T22:23:21.743Z,8.80
2022-10-02T22:25:56.023Z,10.07
2022-10-02T22:28:32.279Z,10.40
2022-10-02T22:31:13.741Z,10.37
2022-10-02T22:33:55.024Z,10.20
2022-10-02T22:36:32.005Z,10.07
2022-10-02T22:39:05.372Z,9.97
2022-10-02T22:41:36.051Z,10.70
2022-10-02T22:44:07.331Z,10.47
2022-10-02T22:46:41.406Z,10.07
2022-10-02T22:49:16.566Z,10.70
2022-10-02T22:51:47.358Z,10.73
2022-10-02T22:54:21.343Z,9.70
2022-10-02T22:56:53.060Z,11.00
2022-10-02T22:59:24.951Z,11.27
2022-10-02T23:01:54.670Z,10.37
2022-10-02T23:04:28.667Z,10.40
2022-10-02T23:07:02.485Z,10.50
2022-10-02T23:09:35.601Z,11.00
2022-10-02T23:12:10.997Z,10.80
2022-10-02T23:14:44.429Z,10.97
2022-10-02T23:17:14.210Z,10.93
2022-10-02T23:19:43.898Z,10.83
2022-10-02T23:22:18.084Z,11.23
2022-10-02T23:24:47.765Z,11.00
2022-10-02T23:27:17.222Z,11.00
2022-10-02T23:29:50.908Z,12.50
2022-10-02T23:32:24.259Z,11.97
2022-10-02T23:34:54.853Z,12.40
2022-10-02T23:37:25.028Z,11.37
2022-10-02T23:39:55.227Z,12.53
2022-10-02T23:42:27.490Z,11.73
2022-10-02T23:44:58.719Z,11.53
2022-10-02T23:47:30.095Z,11.20
2022-10-02T23:49:58.461Z,11.73
2022-10-02T23:52:41.128Z,12.03
2022-10-02T23:55:19.747Z,11.17
2022-10-02T23:57:55.772Z,12.23
